Time;durP1;ratioP1;P1;durP2;ratioP2;P2;SDS_P1;SDS_P2;PMS_P1;PMS_P2;Temp;Humidity;BMP_temperature;BMP_pressure;BME280_temperature;BME280_humidity;BME280_pressure;Samples;Min_cycle;Max_cycle;Signal;HPM_P1;HPM_P2
2023/04/16 00:00:29;;;;;;;11.33;6.93;;;;;;;;;;8378183;28;20172;-72
2023/04/16 00:04:29;;;;;;;8.60;6.90;;;;;;;;;;8387294;28;20270;-73
2023/04/16 00:08:30;;;;;;;8.23;6.63;;;;;;;;;;8386980;28;20071;-72
2023/04/16 00:12:30;;;;;;;7.72;6.93;;;;;;;;;;8388184;28;20028;-72
2023/04/16 00:16:31;;;;;;;6.70;6.03;;;;;;;;;;8373368;28;20063;-73
2023/04/16 00:20:31;;;;;;;7.97;6.80;;;;;;;;;;8391079;28;20028;-72
2023/04/16 00:24:32;;;;;;;6.93;6.07;;;;;;;;;;8388388;28;20051;-73
2023/04/16 00:28:32;;;;;;;6.80;6.10;;;;;;;;;;8391643;28;20472;-72
2023/04/16 00:32:32;;;;;;;7.78;6.97;;;;;;;;;;8359360;28;20112;-72
2023/04/16 00:36:32;;;;;;;7.68;6.88;;;;;;;;;;8388340;28;20017;-73
2023/04/16 00:40:32;;;;;;;9.35;6.93;;;;;;;;;;8383378;28;20083;-72
2023/04/16 00:44:36;;;;;;;7.85;6.55;;;;;;;;;;8355447;28;20070;-73
2023/04/16 00:48:37;;;;;;;10.50;7.90;;;;;;;;;;8376475;28;20045;-72
2023/04/16 00:52:37;;;;;;;8.00;7.20;;;;;;;;;;8369846;28;20027;-73
2023/04/16 00:56:37;;;;;;;7.55;6.57;;;;;;;;;;8366657;28;20143;-73
2023/04/16 01:00:37;;;;;;;8.52;6.95;;;;;;;;;;8369820;28;20038;-73
2023/04/16 01:04:37;;;;;;;7.85;7.03;;;;;;;;;;8366303;28;20019;-73
2023/04/16 01:08:38;;;;;;;9.38;6.88;;;;;;;;;;8374166;28;20025;-72
2023/04/16 01:12:38;;;;;;;8.20;7.30;;;;;;;;;;8359293;28;20023;-72
2023/04/16 01:16:38;;;;;;;10.40;7.43;;;;;;;;;;8389281;28;20025;-72
2023/04/16 01:20:39;;;;;;;10.93;8.93;;;;;;;;;;8379149;28;20021;-72
2023/04/16 01:24:39;;;;;;;9.33;7.80;;;;;;;;;;8359304;28;20082;-72
2023/04/16 01:28:39;;;;;;;10.80;8.13;;;;;;;;;;8360065;28;20286;-72
2023/04/16 01:32:40;;;;;;;9.90;8.37;;;;;;;;;;8381687;28;20133;-72
2023/04/16 01:36:40;;;;;;;9.77;8.25;;;;;;;;;;8352044;28;20279;-72
2023/04/16 01:40:40;;;;;;;9.48;8.38;;;;;;;;;;8371861;28;20039;-72
2023/04/16 01:44:40;;;;;;;10.55;8.75;;;;;;;;;;8372075;28;20651;-72
2023/04/16 01:48:40;;;;;;;13.02;8.88;;;;;;;;;;8377354;28;20557;-72
2023/04/16 01:52:40;;;;;;;10.43;8.18;;;;;;;;;;8386800;28;21002;-71
2023/04/16 01:56:41;;;;;;;10.40;8.55;;;;;;;;;;8356346;28;20051;-72
2023/04/16 02:00:41;;;;;;;8.88;7.90;;;;;;;;;;8388391;28;20033;-73
2023/04/16 02:04:44;;;;;;;9.43;8.32;;;;;;;;;;8371566;28;20101;-73
2023/04/16 02:08:45;;;;;;;10.87;8.47;;;;;;;;;;8373467;28;20143;-73
2023/04/16 02:12:45;;;;;;;11.75;8.48;;;;;;;;;;8387116;28;20009;-73
2023/04/16 02:16:45;;;;;;;11.55;8.88;;;;;;;;;;8365375;28;20482;-72
2023/04/16 02:20:46;;;;;;;10.10;7.93;;;;;;;;;;8384003;28;20032;-73
2023/04/16 02:24:46;;;;;;;10.00;8.07;;;;;;;;;;8360969;28;20731;-72
2023/04/16 02:28:46;;;;;;;10.10;8.18;;;;;;;;;;8381054;28;20016;-73
2023/04/16 02:32:46;;;;;;;13.10;8.80;;;;;;;;;;8348310;28;20113;-73
2023/04/16 02:36:46;;;;;;;11.80;8.55;;;;;;;;;;8374747;28;20017;-72
2023/04/16 02:40:47;;;;;;;10.88;8.52;;;;;;;;;;8373590;28;20471;-72
2023/04/16 02:44:47;;;;;;;10.35;8.25;;;;;;;;;;8385825;28;20102;-72
2023/04/16 02:48:49;;;;;;;13.48;9.95;;;;;;;;;;8364223;28;20818;-73
2023/04/16 02:52:50;;;;;;;12.25;9.25;;;;;;;;;;8379692;28;20076;-72
2023/04/16 02:56:50;;;;;;;11.40;8.50;;;;;;;;;;8394992;28;20405;-73
2023/04/16 03:00:52;;;;;;;13.20;9.35;;;;;;;;;;8396478;28;20071;-73
2023/04/16 03:04:52;;;;;;;13.50;9.82;;;;;;;;;;8403962;28;20556;-72
2023/04/16 03:08:52;;;;;;;13.30;9.38;;;;;;;;;;8381621;28;20118;-72
2023/04/16 03:12:53;;;;;;;16.13;10.27;;;;;;;;;;8394918;28;20027;-72
2023/04/16 03:16:53;;;;;;;12.27;9.37;;;;;;;;;;8400653;28;20267;-72
2023/04/16 03:20:53;;;;;;;20.20;10.57;;;;;;;;;;8383300;28;20263;-73
2023/04/16 03:24:53;;;;;;;15.10;9.65;;;;;;;;;;8369710;28;20035;-72
2023/04/16 03:28:54;;;;;;;13.38;9.52;;;;;;;;;;8381308;28;20024;-73
2023/04/16 03:32:54;;;;;;;12.98;8.95;;;;;;;;;;8399971;28;20039;-72
2023/04/16 03:36:54;;;;;;;13.37;9.23;;;;;;;;;;8385120;28;20322;-72
2023/04/16 03:40:55;;;;;;;11.77;8.95;;;;;;;;;;8404085;28;20261;-72
2023/04/16 03:44:56;;;;;;;10.05;7.60;;;;;;;;;;8414197;28;20028;-72
2023/04/16 03:48:56;;;;;;;9.95;7.93;;;;;;;;;;8398014;28;20067;-72
2023/04/16 03:52:56;;;;;;;10.38;7.95;;;;;;;;;;8413100;28;20021;-72
2023/04/16 03:56:56;;;;;;;10.38;7.93;;;;;;;;;;8389858;28;20123;-72
2023/04/16 04:00:57;;;;;;;9.27;7.13;;;;;;;;;;8406828;28;20044;-72
2023/04/16 04:04:57;;;;;;;12.27;7.55;;;;;;;;;;8409659;28;20032;-72
2023/04/16 04:08:57;;;;;;;11.23;7.28;;;;;;;;;;8407262;28;20029;-72
2023/04/16 04:12:58;;;;;;;10.05;7.18;;;;;;;;;;8408333;28;20072;-72
2023/04/16 04:16:58;;;;;;;10.88;6.75;;;;;;;;;;8403416;28;20054;-72
2023/04/16 04:20:58;;;;;;;10.88;7.50;;;;;;;;;;8404125;28;20027;-72
2023/04/16 04:24:58;;;;;;;8.37;6.53;;;;;;;;;;8393676;28;20036;-74
2023/04/16 04:28:58;;;;;;;8.93;6.75;;;;;;;;;;8401150;28;20312;-73
2023/04/16 04:32:59;;;;;;;9.10;6.80;;;;;;;;;;8386917;28;20043;-73
2023/04/16 04:36:59;;;;;;;10.65;6.38;;;;;;;;;;8389383;28;20131;-73
2023/04/16 04:40:59;;;;;;;7.78;6.35;;;;;;;;;;8378124;28;20089;-73
2023/04/16 04:45:00;;;;;;;8.00;6.23;;;;;;;;;;8383020;28;20019;-74
2023/04/16 04:49:00;;;;;;;8.25;6.10;;;;;;;;;;8392424;28;20281;-73
2023/04/16 04:53:00;;;;;;;9.60;6.60;;;;;;;;;;8389945;28;20111;-73
2023/04/16 04:57:00;;;;;;;10.85;6.72;;;;;;;;;;8383529;28;20024;-73
2023/04/16 05:01:01;;;;;;;10.32;7.00;;;;;;;;;;8404716;28;20025;-73
2023/04/16 05:05:01;;;;;;;8.57;6.30;;;;;;;;;;8411793;28;20031;-73
2023/04/16 05:09:02;;;;;;;10.10;6.25;;;;;;;;;;8394053;28;20025;-72
2023/04/16 05:13:02;;;;;;;7.63;5.95;;;;;;;;;;8421041;28;20028;-73
2023/04/16 05:17:03;;;;;;;9.60;6.18;;;;;;;;;;8420895;28;20039;-73
2023/04/16 05:21:03;;;;;;;9.68;5.97;;;;;;;;;;8398764;28;20471;-73
2023/04/16 05:25:04;;;;;;;7.07;5.55;;;;;;;;;;8400209;28;20019;-73
2023/04/16 05:29:04;;;;;;;8.10;6.30;;;;;;;;;;8414326;28;20025;-73
2023/04/16 05:33:05;;;;;;;8.00;6.40;;;;;;;;;;8412222;28;20068;-73
2023/04/16 05:37:05;;;;;;;11.88;6.32;;;;;;;;;;8394882;28;20032;-73
2023/04/16 05:41:05;;;;;;;10.07;6.72;;;;;;;;;;8396825;28;20024;-73
2023/04/16 05:45:05;;;;;;;9.85;6.40;;;;;;;;;;8413937;28;20327;-74
2023/04/16 05:49:06;;;;;;;7.47;5.80;;;;;;;;;;8398051;28;20020;-73
2023/04/16 05:53:06;;;;;;;7.15;5.43;;;;;;;;;;8415273;28;20076;-72
2023/04/16 05:57:06;;;;;;;8.27;5.90;;;;;;;;;;8399499;28;20855;-73
2023/04/16 06:01:07;;;;;;;8.25;6.25;;;;;;;;;;8413985;28;20040;-73
2023/04/16 06:05:07;;;;;;;9.10;6.47;;;;;;;;;;8416053;28;20032;-73
2023/04/16 06:09:07;;;;;;;9.03;6.00;;;;;;;;;;8400005;28;20021;-72
2023/04/16 06:13:07;;;;;;;9.77;6.97;;;;;;;;;;8401614;28;20279;-73
2023/04/16 06:17:07;;;;;;;7.32;6.25;;;;;;;;;;8401126;28;20294;-73
2023/04/16 06:21:11;;;;;;;8.10;5.55;;;;;;;;;;8416922;28;20035;-73
2023/04/16 06:25:11;;;;;;;7.97;5.57;;;;;;;;;;8419169;28;20029;-73
2023/04/16 06:29:12;;;;;;;9.13;6.37;;;;;;;;;;8414313;28;20039;-74
2023/04/16 06:33:12;;;;;;;9.73;6.93;;;;;;;;;;8396279;28;20368;-73
2023/04/16 06:37:12;;;;;;;8.88;6.50;;;;;;;;;;8399875;28;20008;-73
2023/04/16 06:41:13;;;;;;;10.18;7.10;;;;;;;;;;8400595;28;20040;-72
2023/04/16 06:45:13;;;;;;;10.38;6.45;;;;;;;;;;8412411;28;20023;-73
2023/04/16 06:49:13;;;;;;;10.02;6.85;;;;;;;;;;8414983;28;20033;-72
2023/04/16 06:53:14;;;;;;;11.55;7.40;;;;;;;;;;8413755;28;20033;-73
2023/04/16 06:57:15;;;;;;;10.18;7.28;;;;;;;;;;8413274;28;20015;-73
2023/04/16 07:01:15;;;;;;;9.75;6.70;;;;;;;;;;8417179;28;20059;-73
2023/04/16 07:05:16;;;;;;;9.48;6.80;;;;;;;;;;8412551;28;20020;-73
2023/04/16 07:09:19;;;;;;;9.95;6.78;;;;;;;;;;8408013;28;20028;-73
2023/04/16 07:13:19;;;;;;;9.82;6.60;;;;;;;;;;8398624;28;20035;-73
2023/04/16 07:17:19;;;;;;;8.57;6.10;;;;;;;;;;8406433;28;20029;-72
2023/04/16 07:21:21;;;;;;;10.70;6.18;;;;;;;;;;8408620;28;20028;-73
2023/04/16 07:25:21;;;;;;;10.23;6.40;;;;;;;;;;8413089;28;20028;-73
2023/04/16 07:29:21;;;;;;;9.63;6.38;;;;;;;;;;8403866;28;20074;-73
2023/04/16 07:33:21;;;;;;;9.33;5.93;;;;;;;;;;8413873;28;20033;-73
2023/04/16 07:37:22;;;;;;;10.05;6.50;;;;;;;;;;8392693;28;20279;-73
2023/04/16 07:41:22;;;;;;;10.40;6.50;;;;;;;;;;8389996;28;20029;-73
2023/04/16 07:45:22;;;;;;;9.45;6.50;;;;;;;;;;8401475;28;20033;-73
2023/04/16 07:49:23;;;;;;;8.85;6.30;;;;;;;;;;8405171;28;20036;-73
2023/04/16 07:53:23;;;;;;;8.60;6.30;;;;;;;;;;8408807;28;20302;-72
2023/04/16 07:57:23;;;;;;;9.25;6.35;;;;;;;;;;8408088;28;20031;-72
2023/04/16 08:01:23;;;;;;;8.68;6.60;;;;;;;;;;8413698;28;20030;-72
2023/04/16 08:05:23;;;;;;;9.55;6.63;;;;;;;;;;8412006;28;20020;-73
2023/04/16 08:09:26;;;;;;;10.70;6.53;;;;;;;;;;8408253;28;20089;-72
2023/04/16 08:13:26;;;;;;;9.10;6.68;;;;;;;;;;8410450;28;20282;-72
2023/04/16 08:17:28;;;;;;;12.30;7.63;;;;;;;;;;8409250;28;20040;-72
2023/04/16 08:21:30;;;;;;;10.57;7.47;;;;;;;;;;8409756;28;20073;-72
2023/04/16 08:25:30;;;;;;;9.43;7.28;;;;;;;;;;8394659;28;20024;-71
2023/04/16 08:29:31;;;;;;;9.32;7.07;;;;;;;;;;8395909;28;20032;-72
2023/04/16 08:33:31;;;;;;;11.07;7.70;;;;;;;;;;8386380;28;20040;-71
2023/04/16 08:37:31;;;;;;;9.25;6.78;;;;;;;;;;8398751;28;20517;-71
2023/04/16 08:41:33;;;;;;;9.10;6.45;;;;;;;;;;8404734;28;20052;-72
2023/04/16 08:45:33;;;;;;;8.57;6.45;;;;;;;;;;8378443;28;20047;-72
2023/04/16 08:49:42;;;;;;;8.02;6.38;;;;;;;;;;8362676;28;20020;-72
2023/04/16 08:53:47;;;;;;;7.75;6.22;;;;;;;;;;8377948;28;20024;-72
2023/04/16 08:57:49;;;;;;;8.73;6.68;;;;;;;;;;8394134;28;20039;-72
2023/04/16 09:01:51;;;;;;;10.73;7.28;;;;;;;;;;8378576;28;20033;-72
2023/04/16 09:05:52;;;;;;;8.93;6.90;;;;;;;;;;8378295;28;20016;-72
2023/04/16 09:09:52;;;;;;;10.98;7.85;;;;;;;;;;8397685;28;20028;-71
2023/04/16 09:13:52;;;;;;;8.48;6.72;;;;;;;;;;8377224;28;20205;-71
2023/04/16 09:17:53;;;;;;;9.23;6.55;;;;;;;;;;8393445;28;20047;-72
2023/04/16 09:21:53;;;;;;;8.40;6.95;;;;;;;;;;8404696;28;20013;-72
2023/04/16 09:25:54;;;;;;;9.23;7.05;;;;;;;;;;8395622;28;20032;-72
2023/04/16 09:29:54;;;;;;;8.75;6.47;;;;;;;;;;8388528;28;20028;-71
2023/04/16 09:34:01;;;;;;;10.75;7.32;;;;;;;;;;8388614;28;20044;-72
2023/04/16 09:38:01;;;;;;;10.20;7.78;;;;;;;;;;8404917;28;20028;-72
2023/04/16 09:42:04;;;;;;;10.65;7.18;;;;;;;;;;8391727;28;20052;-72
2023/04/16 09:46:04;;;;;;;9.70;6.95;;;;;;;;;;8393365;28;20028;-72
2023/04/16 09:50:04;;;;;;;10.97;7.30;;;;;;;;;;8404420;28;20025;-72
2023/04/16 09:54:05;;;;;;;12.10;7.10;;;;;;;;;;8406415;28;20277;-72
2023/04/16 09:58:05;;;;;;;9.73;7.45;;;;;;;;;;8404220;28;20427;-72
2023/04/16 10:02:07;;;;;;;9.23;6.95;;;;;;;;;;8411553;28;20041;-72
2023/04/16 10:06:18;;;;;;;9.18;7.20;;;;;;;;;;8411761;28;20062;-72
2023/04/16 10:10:18;;;;;;;9.65;6.80;;;;;;;;;;8394358;28;20029;-72
2023/04/16 10:14:18;;;;;;;10.45;7.40;;;;;;;;;;8395300;28;20177;-71
2023/04/16 10:18:19;;;;;;;11.27;8.40;;;;;;;;;;8409693;28;20032;-72
2023/04/16 10:22:19;;;;;;;9.82;7.47;;;;;;;;;;8413427;28;20576;-72
2023/04/16 10:26:20;;;;;;;10.75;7.57;;;;;;;;;;8419783;28;20048;-72
2023/04/16 10:30:20;;;;;;;11.00;8.30;;;;;;;;;;8397808;28;20035;-72
2023/04/16 10:34:22;;;;;;;12.68;8.65;;;;;;;;;;8414111;28;20047;-72
2023/04/16 10:38:26;;;;;;;13.52;9.32;;;;;;;;;;8395117;28;20008;-72
2023/04/16 10:42:26;;;;;;;14.35;9.18;;;;;;;;;;8410876;28;20005;-72
2023/04/16 10:46:35;;;;;;;14.07;8.67;;;;;;;;;;8409740;28;20048;-72
2023/04/16 10:50:36;;;;;;;11.82;8.57;;;;;;;;;;8409910;28;20294;-72
2023/04/16 10:54:36;;;;;;;15.38;9.68;;;;;;;;;;8396673;28;20009;-72
2023/04/16 10:58:41;;;;;;;13.52;8.93;;;;;;;;;;8375216;28;20028;-71
2023/04/16 11:02:42;;;;;;;13.32;8.88;;;;;;;;;;8380258;28;20125;-70
2023/04/16 11:06:58;;;;;;;16.27;8.80;;;;;;;;;;8393794;28;20009;-70
2023/04/16 11:10:59;;;;;;;12.70;9.10;;;;;;;;;;8395181;28;20020;-71
2023/04/16 11:15:06;;;;;;;16.13;9.70;;;;;;;;;;8394939;28;20103;-71
2023/04/16 11:19:06;;;;;;;13.88;9.75;;;;;;;;;;8411977;28;20096;-71
2023/04/16 11:23:09;;;;;;;16.33;11.30;;;;;;;;;;8396372;28;20039;-71
2023/04/16 11:27:11;;;;;;;14.38;10.18;;;;;;;;;;8411818;28;20077;-71
2023/04/16 11:31:11;;;;;;;14.98;9.98;;;;;;;;;;8410563;28;20111;-72
2023/04/16 11:35:16;;;;;;;13.27;9.55;;;;;;;;;;8410541;28;20103;-72
2023/04/16 11:39:16;;;;;;;15.82;10.10;;;;;;;;;;8392260;28;20461;-72
2023/04/16 11:43:17;;;;;;;13.20;9.73;;;;;;;;;;8411650;28;20036;-72
2023/04/16 11:47:17;;;;;;;15.23;9.60;;;;;;;;;;8409959;28;20393;-72
2023/04/16 11:51:18;;;;;;;13.40;9.63;;;;;;;;;;8411250;28;20032;-75
2023/04/16 11:55:19;;;;;;;15.55;9.98;;;;;;;;;;8414133;28;20543;-71
2023/04/16 11:59:21;;;;;;;15.82;9.88;;;;;;;;;;8419087;28;20020;-72
2023/04/16 12:03:38;;;;;;;15.07;9.27;;;;;;;;;;8392457;28;20051;-72
2023/04/16 12:07:51;;;;;;;14.98;9.98;;;;;;;;;;8392996;28;20024;-72
2023/04/16 12:11:52;;;;;;;17.10;10.80;;;;;;;;;;8410219;28;20036;-73
2023/04/16 12:15:58;;;;;;;16.87;11.03;;;;;;;;;;8399749;28;20149;-73
2023/04/16 12:19:59;;;;;;;19.00;10.95;;;;;;;;;;8391528;28;20266;-73
2023/04/16 12:24:00;;;;;;;18.23;10.82;;;;;;;;;;8396725;28;20039;-72
2023/04/16 12:28:01;;;;;;;18.20;11.07;;;;;;;;;;8395225;28;20074;-74
2023/04/16 12:32:01;;;;;;;17.88;12.18;;;;;;;;;;8404011;28;20283;-73
2023/04/16 12:36:15;;;;;;;17.48;12.60;;;;;;;;;;8405480;28;20029;-73
2023/04/16 12:40:16;;;;;;;;;;;;;;;;;;8408807;28;20013;-72
2023/04/16 12:44:16;;;;;;;17.52;11.00;;;;;;;;;;8392301;28;20056;-72
2023/04/16 12:48:16;;;;;;;23.52;14.02;;;;;;;;;;8368539;28;20097;-73
2023/04/16 12:52:17;;;;;;;21.45;13.88;;;;;;;;;;8398445;28;20119;-73
2023/04/16 12:56:18;;;;;;;20.30;13.63;;;;;;;;;;8395615;28;20028;-72
2023/04/16 13:00:18;;;;;;;18.85;12.82;;;;;;;;;;8403055;28;20035;-72
2023/04/16 13:04:19;;;;;;;19.85;13.68;;;;;;;;;;8389868;28;20032;-72
2023/04/16 13:08:24;;;;;;;21.13;12.88;;;;;;;;;;8396852;28;20182;-71
2023/04/16 13:12:26;;;;;;;21.33;14.48;;;;;;;;;;8409921;28;20108;-72
2023/04/16 13:16:32;;;;;;;22.60;13.60;;;;;;;;;;8412455;28;20102;-72
2023/04/16 13:20:32;;;;;;;20.10;13.80;;;;;;;;;;8395474;28;20025;-71
2023/04/16 13:24:40;;;;;;;17.50;12.43;;;;;;;;;;8408995;28;20009;-72
2023/04/16 13:28:40;;;;;;;21.80;13.43;;;;;;;;;;8390737;28;20032;-72
2023/04/16 13:32:40;;;;;;;21.67;13.77;;;;;;;;;;8401763;28;20028;-72
2023/04/16 13:36:41;;;;;;;17.70;12.87;;;;;;;;;;8403486;28;20024;-72
2023/04/16 13:40:41;;;;;;;19.95;12.73;;;;;;;;;;8408272;28;20339;-73
2023/04/16 13:44:41;;;;;;;21.40;13.33;;;;;;;;;;8388013;28;20257;-72
2023/04/16 13:48:41;;;;;;;18.80;12.73;;;;;;;;;;8392773;28;20040;-71
2023/04/16 13:52:42;;;;;;;17.30;11.97;;;;;;;;;;8388719;28;20262;-72
2023/04/16 13:56:42;;;;;;;18.85;12.57;;;;;;;;;;8376714;28;20303;-72
2023/04/16 14:00:43;;;;;;;20.77;13.30;;;;;;;;;;8389074;28;20036;-72
2023/04/16 14:04:43;;;;;;;18.33;11.95;;;;;;;;;;8389710;28;20565;-74
2023/04/16 14:08:44;;;;;;;16.50;11.13;;;;;;;;;;8406174;28;20020;-73
2023/04/16 14:12:44;;;;;;;14.88;10.82;;;;;;;;;;8393227;28;20271;-73
2023/04/16 14:16:45;;;;;;;15.30;11.05;;;;;;;;;;8398010;28;20476;-73
2023/04/16 14:20:46;;;;;;;16.33;12.25;;;;;;;;;;8382869;28;20092;-74
2023/04/16 14:24:46;;;;;;;18.90;11.35;;;;;;;;;;8388341;28;20020;-74
2023/04/16 14:28:47;;;;;;;16.67;11.02;;;;;;;;;;8405685;28;20089;-73
2023/04/16 14:32:47;;;;;;;16.00;11.45;;;;;;;;;;8407622;28;20575;-72
2023/04/16 14:37:01;;;;;;;13.98;10.85;;;;;;;;;;8398215;28;20041;-72
2023/04/16 14:41:01;;;;;;;16.50;11.35;;;;;;;;;;8416860;28;20033;-72
2023/04/16 14:45:13;;;;;;;15.57;11.43;;;;;;;;;;8400550;28;20031;-72
2023/04/16 14:49:13;;;;;;;16.95;11.55;;;;;;;;;;8396984;28;20047;-72
2023/04/16 14:53:13;;;;;;;18.15;12.02;;;;;;;;;;8411157;28;20021;-72
2023/04/16 14:57:13;;;;;;;15.03;10.90;;;;;;;;;;8383425;28;20016;-72
2023/04/16 15:01:20;;;;;;;15.02;10.57;;;;;;;;;;8352805;28;20259;-72
2023/04/16 15:05:21;;;;;;;14.23;10.48;;;;;;;;;;8388693;28;20024;-73
2023/04/16 15:09:21;;;;;;;14.13;10.95;;;;;;;;;;8391324;28;20028;-72
2023/04/16 15:13:21;;;;;;;13.57;9.83;;;;;;;;;;8407360;28;20024;-72
2023/04/16 15:17:22;;;;;;;12.88;9.38;;;;;;;;;;8415870;28;20075;-72
2023/04/16 15:21:22;;;;;;;13.20;10.05;;;;;;;;;;8413524;28;20028;-72
2023/04/16 15:25:23;;;;;;;16.63;10.77;;;;;;;;;;8403823;28;20124;-72
2023/04/16 15:29:23;;;;;;;14.32;9.55;;;;;;;;;;8403568;28;20098;-72
2023/04/16 15:33:25;;;;;;;12.20;8.93;;;;;;;;;;8382648;28;20061;-72
2023/04/16 15:37:25;;;;;;;10.23;8.25;;;;;;;;;;8403091;28;20036;-73
2023/04/16 15:41:38;;;;;;;10.80;8.02;;;;;;;;;;8394533;28;20088;-73
2023/04/16 15:45:38;;;;;;;13.90;8.60;;;;;;;;;;8412426;28;20040;-72
2023/04/16 15:49:39;;;;;;;11.52;9.27;;;;;;;;;;8416029;28;20077;-73
2023/04/16 15:53:40;;;;;;;11.05;8.48;;;;;;;;;;8395593;28;20454;-73
2023/04/16 15:57:40;;;;;;;10.13;8.52;;;;;;;;;;8414649;28;20017;-71
2023/04/16 16:01:40;;;;;;;12.48;8.95;;;;;;;;;;8398793;28;20032;-72
2023/04/16 16:05:41;;;;;;;15.63;8.45;;;;;;;;;;8389477;28;20648;-73
2023/04/16 16:09:41;;;;;;;9.93;7.95;;;;;;;;;;8394697;28;20059;-72
2023/04/16 16:13:42;;;;;;;11.30;7.82;;;;;;;;;;8399685;28;20021;-72
2023/04/16 16:17:42;;;;;;;10.75;8.00;;;;;;;;;;8389072;28;20040;-72
2023/04/16 16:21:48;;;;;;;11.68;8.48;;;;;;;;;;8370386;28;20024;-72
2023/04/16 16:25:50;;;;;;;9.07;7.47;;;;;;;;;;8400403;28;20084;-72
2023/04/16 16:29:52;;;;;;;11.07;7.78;;;;;;;;;;8407747;28;20023;-71
2023/04/16 16:33:52;;;;;;;11.75;7.90;;;;;;;;;;8391638;28;20128;-72
2023/04/16 16:37:56;;;;;;;9.63;8.00;;;;;;;;;;8373685;28;20085;-72
2023/04/16 16:41:56;;;;;;;10.07;7.77;;;;;;;;;;8376797;28;20023;-72
2023/04/16 16:45:56;;;;;;;9.43;7.38;;;;;;;;;;8350056;28;20071;-73
2023/04/16 16:49:57;;;;;;;11.45;7.88;;;;;;;;;;8357078;28;20032;-72
2023/04/16 16:54:06;;;;;;;13.35;8.57;;;;;;;;;;8374918;28;20013;-72
2023/04/16 16:58:06;;;;;;;13.10;9.07;;;;;;;;;;8389555;28;20012;-72
2023/04/16 17:02:07;;;;;;;12.65;8.65;;;;;;;;;;8392207;28;20033;-72
2023/04/16 17:06:07;;;;;;;12.27;8.32;;;;;;;;;;8392444;28;20032;-72
2023/04/16 17:10:10;;;;;;;11.18;9.23;;;;;;;;;;8393483;28;20384;-72
2023/04/16 17:14:12;;;;;;;11.30;8.48;;;;;;;;;;8400534;28;20028;-73
2023/04/16 17:18:12;;;;;;;12.23;8.57;;;;;;;;;;8381449;28;20031;-73
2023/04/16 17:22:13;;;;;;;11.93;8.20;;;;;;;;;;8387766;28;20033;-73
2023/04/16 17:26:13;;;;;;;11.38;8.60;;;;;;;;;;8378628;28;20031;-72
2023/04/16 17:30:13;;;;;;;11.90;9.23;;;;;;;;;;8373495;28;20034;-73
2023/04/16 17:34:13;;;;;;;12.25;9.27;;;;;;;;;;8377022;28;20101;-73
2023/04/16 17:38:14;;;;;;;11.27;8.90;;;;;;;;;;8370634;28;20021;-73
2023/04/16 17:42:14;;;;;;;11.55;8.52;;;;;;;;;;8394641;28;20275;-72
2023/04/16 17:46:14;;;;;;;11.77;8.63;;;;;;;;;;8398576;28;20043;-74
2023/04/16 17:50:15;;;;;;;13.52;8.88;;;;;;;;;;8371859;28;20021;-74
2023/04/16 17:54:15;;;;;;;12.07;8.52;;;;;;;;;;8372809;28;20040;-73
2023/04/16 17:58:15;;;;;;;9.98;7.88;;;;;;;;;;8360945;28;20025;-73
2023/04/16 18:02:17;;;;;;;12.50;8.30;;;;;;;;;;8353591;28;20037;-74
2023/04/16 18:06:18;;;;;;;11.75;8.32;;;;;;;;;;8386898;28;20021;-74
2023/04/16 18:10:19;;;;;;;9.95;7.85;;;;;;;;;;8362809;28;20094;-74
2023/04/16 18:14:20;;;;;;;9.80;7.93;;;;;;;;;;8380163;28;20028;-75
2023/04/16 18:18:20;;;;;;;9.80;8.00;;;;;;;;;;8381675;28;20033;-73
2023/04/16 18:22:22;;;;;;;11.13;8.18;;;;;;;;;;8398749;28;20765;-73
2023/04/16 18:26:22;;;;;;;11.18;7.70;;;;;;;;;;8379163;28;20024;-73
2023/04/16 18:30:23;;;;;;;10.10;7.43;;;;;;;;;;8394239;28;20032;-73
2023/04/16 18:34:28;;;;;;;8.15;7.25;;;;;;;;;;8376976;28;20024;-73
2023/04/16 18:38:30;;;;;;;8.77;7.40;;;;;;;;;;8370728;28;20029;-73
2023/04/16 18:42:31;;;;;;;8.70;7.32;;;;;;;;;;8390539;28;21230;-72
2023/04/16 18:46:31;;;;;;;11.10;7.75;;;;;;;;;;8398622;28;20100;-73
2023/04/16 18:50:39;;;;;;;9.80;7.68;;;;;;;;;;8421031;28;20008;-72
2023/04/16 18:54:42;;;;;;;9.63;7.65;;;;;;;;;;8420420;28;20021;-73
2023/04/16 18:58:46;;;;;;;10.88;7.32;;;;;;;;;;8400610;28;20031;-73
2023/04/16 19:02:46;;;;;;;9.48;7.43;;;;;;;;;;8381920;28;20040;-73
2023/04/16 19:06:47;;;;;;;8.90;7.13;;;;;;;;;;8390070;28;20028;-73
2023/04/16 19:10:47;;;;;;;9.45;6.43;;;;;;;;;;8381965;28;20127;-73
2023/04/16 19:14:48;;;;;;;9.23;7.30;;;;;;;;;;8399576;28;20023;-73
2023/04/16 19:18:49;;;;;;;10.97;7.23;;;;;;;;;;8413376;28;20044;-76
2023/04/16 19:22:52;;;;;;;9.20;7.50;;;;;;;;;;8409133;28;20853;-73
2023/04/16 19:26:52;;;;;;;9.57;7.10;;;;;;;;;;8385300;28;20029;-73
2023/04/16 19:30:52;;;;;;;10.15;7.80;;;;;;;;;;8387726;28;20163;-72
2023/04/16 19:34:53;;;;;;;10.40;7.15;;;;;;;;;;8393759;28;20030;-73
2023/04/16 19:38:53;;;;;;;8.90;7.28;;;;;;;;;;8387877;28;20436;-73
2023/04/16 19:43:12;;;;;;;9.43;7.17;;;;;;;;;;8388387;28;20029;-72
2023/04/16 19:47:14;;;;;;;9.07;6.85;;;;;;;;;;8385781;28;20052;-73
2023/04/16 19:51:20;;;;;;;10.15;7.55;;;;;;;;;;8402753;28;20090;-73
2023/04/16 19:55:21;;;;;;;9.02;7.13;;;;;;;;;;8393541;28;20072;-73
2023/04/16 19:59:23;;;;;;;10.13;7.22;;;;;;;;;;8414618;28;20085;-73
2023/04/16 20:03:24;;;;;;;11.20;7.45;;;;;;;;;;8414867;28;20024;-73
2023/04/16 20:07:27;;;;;;;9.57;8.13;;;;;;;;;;8420141;28;20036;-74
2023/04/16 20:11:28;;;;;;;10.30;7.95;;;;;;;;;;8380087;23;20194;-59
2023/04/16 20:15:28;;;;;;;11.73;7.65;;;;;;;;;;8352164;28;20037;-59
2023/04/16 20:19:36;;;;;;;8.25;7.45;;;;;;;;;;8349643;28;20097;-59
2023/04/16 20:23:36;;;;;;;10.30;8.45;;;;;;;;;;8359166;28;20035;-59
2023/04/16 20:27:37;;;;;;;9.73;7.72;;;;;;;;;;8355249;28;20537;-59
2023/04/16 20:31:37;;;;;;;9.88;7.93;;;;;;;;;;8346035;28;20052;-59
2023/04/16 20:35:37;;;;;;;11.05;7.93;;;;;;;;;;8324076;28;20136;-59
2023/04/16 20:39:38;;;;;;;10.32;7.82;;;;;;;;;;8320368;28;20013;-59
2023/04/16 20:43:40;;;;;;;8.90;7.60;;;;;;;;;;8326866;28;20020;-59
2023/04/16 20:47:42;;;;;;;10.05;7.63;;;;;;;;;;8328655;28;20686;-59
2023/04/16 20:51:42;;;;;;;11.55;7.50;;;;;;;;;;8328734;28;20110;-59
2023/04/16 20:55:42;;;;;;;8.68;7.22;;;;;;;;;;8327142;28;20163;-59
2023/04/16 20:59:42;;;;;;;9.82;7.65;;;;;;;;;;8326382;28;20029;-59
2023/04/16 21:03:42;;;;;;;7.80;6.97;;;;;;;;;;8326119;28;20037;-59
2023/04/16 21:07:43;;;;;;;10.38;7.35;;;;;;;;;;8324435;28;20032;-59
2023/04/16 21:11:43;;;;;;;11.10;7.00;;;;;;;;;;8325379;28;20586;-60
2023/04/16 21:15:43;;;;;;;9.27;7.43;;;;;;;;;;8326347;28;20087;-59
2023/04/16 21:19:44;;;;;;;9.63;7.13;;;;;;;;;;8327458;28;20247;-59
2023/04/16 21:23:44;;;;;;;10.93;7.38;;;;;;;;;;8327230;28;20037;-59
2023/04/16 21:27:45;;;;;;;10.80;7.20;;;;;;;;;;8323909;28;20954;-59
2023/04/16 21:31:45;;;;;;;9.68;7.68;;;;;;;;;;8324670;28;20045;-59
2023/04/16 21:35:49;;;;;;;10.35;7.72;;;;;;;;;;8323980;28;20597;-59
2023/04/16 21:39:49;;;;;;;9.35;7.40;;;;;;;;;;8323873;28;20508;-59
2023/04/16 21:43:50;;;;;;;9.25;7.22;;;;;;;;;;8333164;28;20020;-59
2023/04/16 21:47:50;;;;;;;9.88;7.93;;;;;;;;;;8332088;28;20075;-59
2023/04/16 21:51:57;;;;;;;10.10;7.78;;;;;;;;;;8331276;28;20060;-59
2023/04/16 21:55:57;;;;;;;9.40;7.90;;;;;;;;;;8332700;28;20031;-59
2023/04/16 21:59:58;;;;;;;8.95;7.00;;;;;;;;;;8331767;28;20454;-59
2023/04/16 22:03:58;;;;;;;10.82;6.97;;;;;;;;;;8330466;28;20095;-59
2023/04/16 22:07:58;;;;;;;10.05;7.55;;;;;;;;;;8332965;28;20020;-59
2023/04/16 22:11:59;;;;;;;7.93;6.35;;;;;;;;;;8332266;28;20020;-59
2023/04/16 22:16:00;;;;;;;8.25;6.53;;;;;;;;;;8331996;28;20033;-59
2023/04/16 22:20:07;;;;;;;8.77;6.97;;;;;;;;;;8333959;28;20032;-59
2023/04/16 22:24:08;;;;;;;8.23;6.97;;;;;;;;;;8335259;28;20055;-59
2023/04/16 22:28:08;;;;;;;8.25;6.68;;;;;;;;;;8329950;28;20461;-59
2023/04/16 22:32:08;;;;;;;10.20;7.18;;;;;;;;;;8332245;28;20049;-59
2023/04/16 22:36:08;;;;;;;8.63;6.75;;;;;;;;;;8330839;28;20028;-59
2023/04/16 22:40:10;;;;;;;9.52;7.25;;;;;;;;;;8329924;28;20017;-59
2023/04/16 22:44:10;;;;;;;8.73;6.78;;;;;;;;;;8328779;28;20859;-58
2023/04/16 22:48:10;;;;;;;9.73;7.03;;;;;;;;;;8328887;28;20029;-60
2023/04/16 22:52:10;;;;;;;8.10;6.97;;;;;;;;;;8329901;28;20037;-59
2023/04/16 22:56:11;;;;;;;9.02;7.35;;;;;;;;;;8330491;28;20037;-59
2023/04/16 23:00:15;;;;;;;8.52;6.57;;;;;;;;;;8316444;28;20028;-60
2023/04/16 23:04:15;;;;;;;9.10;7.10;;;;;;;;;;8329362;28;20071;-59
2023/04/16 23:08:15;;;;;;;9.57;7.20;;;;;;;;;;8328074;28;20132;-60
2023/04/16 23:12:15;;;;;;;8.20;6.75;;;;;;;;;;8330785;28;20028;-60
2023/04/16 23:16:15;;;;;;;9.52;7.00;;;;;;;;;;8327605;28;20421;-59
2023/04/16 23:20:15;;;;;;;9.93;7.07;;;;;;;;;;8331139;28;20024;-59
2023/04/16 23:24:16;;;;;;;8.93;7.00;;;;;;;;;;8331939;28;20025;-59
2023/04/16 23:28:16;;;;;;;8.90;7.18;;;;;;;;;;8329759;28;20078;-59
2023/04/16 23:32:16;;;;;;;8.57;7.30;;;;;;;;;;8330430;28;20044;-59
2023/04/16 23:36:16;;;;;;;7.75;6.53;;;;;;;;;;8324718;28;20083;-59
2023/04/16 23:40:16;;;;;;;10.13;6.97;;;;;;;;;;8329257;28;20030;-59
2023/04/16 23:44:17;;;;;;;7.82;6.60;;;;;;;;;;8330247;28;20020;-59
2023/04/16 23:48:17;;;;;;;8.10;6.82;;;;;;;;;;8328680;28;20029;-60